Terminal Aerodrome Forecast
Issued by NWS

Home | Current Version | Previous Version | Text Only | Print | Product List | Glossary Off
Versions: 1 2 3 4 5 6 7 8 9 10 11 12 13 14 15 16 17 18 19 20 21

000
FTUS43 KABR 232052 AAA
TAFATY
TAF AMD
KATY 232052Z 2321/2418 20020G25KT P6SM FEW250
     FM240100 15009KT P6SM SCT200
     FM240500 15013KT P6SM BKN200 WS020/19040KT
     FM241300 17014G23KT P6SM VCSH BKN100=

USA.gov is the U.S. government's official web portal to all federal, state and local government web resources and services.